Terminal Aerodrome Forecast
Issued by NWS

Home | Current Version | Previous Version | Graphics & Text | Print | Product List | Glossary On
Versions: 1 2 3 4 5 6 7 8 9 10 11 12 13 14 15 16 17 18
000
FTUS43 KBIS 282126 AAA
TAFMOT
TAF AMD
KMOT 282126Z 2821/2918 24008KT 6SM FU SCT250
     FM290300 18005KT 6SM FU FEW250=

USA.gov is the U.S. government's official web portal to all federal, state and local government web resources and services.